sensor_id;sensor_type;location;lat;lon;timestamp;temperature;humidity
32706;DHT22;19094;50.972;3.538;2022-09-29T00:00:11;16.70;59.50
32706;DHT22;19094;50.972;3.538;2022-09-29T00:02:36;16.70;59.30
32706;DHT22;19094;50.972;3.538;2022-09-29T00:05:02;16.70;59.40
32706;DHT22;19094;50.972;3.538;2022-09-29T00:07:28;16.70;59.40
32706;DHT22;19094;50.972;3.538;2022-09-29T00:09:54;16.70;59.60
32706;DHT22;19094;50.972;3.538;2022-09-29T00:12:20;16.60;59.40
32706;DHT22;19094;50.972;3.538;2022-09-29T00:14:45;16.70;59.50
32706;DHT22;19094;50.972;3.538;2022-09-29T00:17:12;16.70;59.50
32706;DHT22;19094;50.972;3.538;2022-09-29T00:19:39;16.60;59.50
32706;DHT22;19094;50.972;3.538;2022-09-29T00:22:04;16.60;59.60
32706;DHT22;19094;50.972;3.538;2022-09-29T00:24:32;16.60;59.40
32706;DHT22;19094;50.972;3.538;2022-09-29T00:26:59;16.60;59.70
32706;DHT22;19094;50.972;3.538;2022-09-29T00:29:25;16.60;59.70
32706;DHT22;19094;50.972;3.538;2022-09-29T00:31:51;16.60;60.30
32706;DHT22;19094;50.972;3.538;2022-09-29T00:34:17;16.60;60.50
32706;DHT22;19094;50.972;3.538;2022-09-29T00:36:43;16.60;59.70
32706;DHT22;19094;50.972;3.538;2022-09-29T00:39:09;16.50;59.70
32706;DHT22;19094;50.972;3.538;2022-09-29T00:41:36;16.60;59.70
32706;DHT22;19094;50.972;3.538;2022-09-29T00:47:15;16.50;59.60
32706;DHT22;19094;50.972;3.538;2022-09-29T00:49:50;16.50;59.80
32706;DHT22;19094;50.972;3.538;2022-09-29T00:54:57;16.50;60.40
32706;DHT22;19094;50.972;3.538;2022-09-29T00:57:29;16.50;59.80
32706;DHT22;19094;50.972;3.538;2022-09-29T01:00:02;16.50;59.90
32706;DHT22;19094;50.972;3.538;2022-09-29T01:02:29;16.40;60.20
32706;DHT22;19094;50.972;3.538;2022-09-29T01:04:55;16.30;60.20
32706;DHT22;19094;50.972;3.538;2022-09-29T01:07:24;16.30;60.60
32706;DHT22;19094;50.972;3.538;2022-09-29T01:09:54;16.40;60.50
32706;DHT22;19094;50.972;3.538;2022-09-29T01:12:21;16.40;60.30
32706;DHT22;19094;50.972;3.538;2022-09-29T01:14:48;16.40;59.50
32706;DHT22;19094;50.972;3.538;2022-09-29T01:17:14;16.40;60.20
32706;DHT22;19094;50.972;3.538;2022-09-29T01:28:51;16.40;59.90
32706;DHT22;19094;50.972;3.538;2022-09-29T01:34:52;16.30;60.40
32706;DHT22;19094;50.972;3.538;2022-09-29T01:37:25;16.30;60.40
32706;DHT22;19094;50.972;3.538;2022-09-29T01:40:13;16.30;60.40
32706;DHT22;19094;50.972;3.538;2022-09-29T01:43:07;16.30;60.40
32706;DHT22;19094;50.972;3.538;2022-09-29T01:45:41;16.30;60.50
32706;DHT22;19094;50.972;3.538;2022-09-29T01:48:16;16.30;60.60
32706;DHT22;19094;50.972;3.538;2022-09-29T01:50:51;16.30;61.00
32706;DHT22;19094;50.972;3.538;2022-09-29T01:53:19;16.30;60.40
32706;DHT22;19094;50.972;3.538;2022-09-29T01:55:51;16.20;60.30
32706;DHT22;19094;50.972;3.538;2022-09-29T01:58:28;16.20;60.80
32706;DHT22;19094;50.972;3.538;2022-09-29T02:01:00;16.30;60.60
32706;DHT22;19094;50.972;3.538;2022-09-29T02:03:56;16.30;60.50
32706;DHT22;19094;50.972;3.538;2022-09-29T02:06:29;16.20;60.40
32706;DHT22;19094;50.972;3.538;2022-09-29T02:08:58;16.10;60.70
32706;DHT22;19094;50.972;3.538;2022-09-29T02:11:28;16.10;61.00
32706;DHT22;19094;50.972;3.538;2022-09-29T02:17:02;16.10;61.10
32706;DHT22;19094;50.972;3.538;2022-09-29T02:19:35;16.10;61.10
32706;DHT22;19094;50.972;3.538;2022-09-29T02:22:02;16.20;61.20
32706;DHT22;19094;50.972;3.538;2022-09-29T02:24:30;16.20;61.10
32706;DHT22;19094;50.972;3.538;2022-09-29T02:26:56;16.20;60.80
32706;DHT22;19094;50.972;3.538;2022-09-29T02:29:22;16.20;60.80
32706;DHT22;19094;50.972;3.538;2022-09-29T02:31:48;16.20;60.70
32706;DHT22;19094;50.972;3.538;2022-09-29T02:34:16;16.20;61.10
32706;DHT22;19094;50.972;3.538;2022-09-29T02:42:30;16.10;61.30
32706;DHT22;19094;50.972;3.538;2022-09-29T02:48:07;16.10;61.10
32706;DHT22;19094;50.972;3.538;2022-09-29T02:56:44;16.10;61.10
32706;DHT22;19094;50.972;3.538;2022-09-29T02:59:15;16.10;61.30
32706;DHT22;19094;50.972;3.538;2022-09-29T03:01:52;16.10;61.30
32706;DHT22;19094;50.972;3.538;2022-09-29T03:04:19;16.10;61.20
32706;DHT22;19094;50.972;3.538;2022-09-29T03:06:47;16.10;61.30
32706;DHT22;19094;50.972;3.538;2022-09-29T03:09:13;16.10;61.10
32706;DHT22;19094;50.972;3.538;2022-09-29T03:11:39;16.10;61.20
32706;DHT22;19094;50.972;3.538;2022-09-29T03:14:05;16.10;61.20
32706;DHT22;19094;50.972;3.538;2022-09-29T03:16:33;16.10;61.30
32706;DHT22;19094;50.972;3.538;2022-09-29T03:19:01;16.10;61.30
32706;DHT22;19094;50.972;3.538;2022-09-29T03:21:28;16.10;61.20
32706;DHT22;19094;50.972;3.538;2022-09-29T03:23:55;16.10;61.20
32706;DHT22;19094;50.972;3.538;2022-09-29T03:26:21;16.10;61.20
32706;DHT22;19094;50.972;3.538;2022-09-29T03:28:49;16.00;61.50
32706;DHT22;19094;50.972;3.538;2022-09-29T03:31:15;15.90;62.00
32706;DHT22;19094;50.972;3.538;2022-09-29T03:33:41;15.90;62.10
32706;DHT22;19094;50.972;3.538;2022-09-29T03:36:07;15.90;61.90
32706;DHT22;19094;50.972;3.538;2022-09-29T03:38:40;16.00;61.80
32706;DHT22;19094;50.972;3.538;2022-09-29T03:41:06;16.00;61.80
32706;DHT22;19094;50.972;3.538;2022-09-29T03:43:32;16.00;61.80
32706;DHT22;19094;50.972;3.538;2022-09-29T03:45:58;16.00;61.90
32706;DHT22;19094;50.972;3.538;2022-09-29T03:48:23;16.00;61.70
32706;DHT22;19094;50.972;3.538;2022-09-29T03:50:50;16.00;61.80
32706;DHT22;19094;50.972;3.538;2022-09-29T03:53:16;15.90;61.50
32706;DHT22;19094;50.972;3.538;2022-09-29T03:55:46;16.00;62.10
32706;DHT22;19094;50.972;3.538;2022-09-29T03:58:12;15.90;62.00
32706;DHT22;19094;50.972;3.538;2022-09-29T04:00:38;15.90;62.00
32706;DHT22;19094;50.972;3.538;2022-09-29T04:03:07;15.90;62.10
32706;DHT22;19094;50.972;3.538;2022-09-29T04:05:36;15.90;62.30
32706;DHT22;19094;50.972;3.538;2022-09-29T04:08:04;15.90;62.10
32706;DHT22;19094;50.972;3.538;2022-09-29T04:10:34;16.00;62.10
32706;DHT22;19094;50.972;3.538;2022-09-29T04:13:00;16.00;62.00
32706;DHT22;19094;50.972;3.538;2022-09-29T04:15:27;16.00;61.80
32706;DHT22;19094;50.972;3.538;2022-09-29T04:17:53;16.00;62.00
32706;DHT22;19094;50.972;3.538;2022-09-29T04:20:19;16.00;62.00
32706;DHT22;19094;50.972;3.538;2022-09-29T04:22:45;15.90;62.10
32706;DHT22;19094;50.972;3.538;2022-09-29T04:25:11;15.90;63.00
32706;DHT22;19094;50.972;3.538;2022-09-29T04:27:37;15.90;62.40
32706;DHT22;19094;50.972;3.538;2022-09-29T04:30:05;15.90;62.20
32706;DHT22;19094;50.972;3.538;2022-09-29T04:32:32;16.00;62.20
32706;DHT22;19094;50.972;3.538;2022-09-29T04:34:58;16.00;62.00
32706;DHT22;19094;50.972;3.538;2022-09-29T04:37:23;15.90;62.20
32706;DHT22;19094;50.972;3.538;2022-09-29T04:39:54;16.00;62.20
32706;DHT22;19094;50.972;3.538;2022-09-29T04:42:20;16.00;62.10
32706;DHT22;19094;50.972;3.538;2022-09-29T04:44:47;16.00;62.00
32706;DHT22;19094;50.972;3.538;2022-09-29T04:47:13;16.00;62.00
32706;DHT22;19094;50.972;3.538;2022-09-29T04:49:40;16.00;62.10
32706;DHT22;19094;50.972;3.538;2022-09-29T04:52:06;16.00;62.20
32706;DHT22;19094;50.972;3.538;2022-09-29T04:54:33;16.00;62.30
32706;DHT22;19094;50.972;3.538;2022-09-29T04:57:01;16.00;62.20
32706;DHT22;19094;50.972;3.538;2022-09-29T04:59:27;15.90;62.10
32706;DHT22;19094;50.972;3.538;2022-09-29T05:01:53;16.00;62.20
32706;DHT22;19094;50.972;3.538;2022-09-29T05:04:22;16.00;62.10
32706;DHT22;19094;50.972;3.538;2022-09-29T05:06:59;16.00;62.10
32706;DHT22;19094;50.972;3.538;2022-09-29T05:09:26;16.00;62.00
32706;DHT22;19094;50.972;3.538;2022-09-29T05:11:52;16.00;62.10
32706;DHT22;19094;50.972;3.538;2022-09-29T05:14:19;16.00;62.20
32706;DHT22;19094;50.972;3.538;2022-09-29T05:16:44;15.90;62.10
32706;DHT22;19094;50.972;3.538;2022-09-29T05:19:13;15.90;61.90
32706;DHT22;19094;50.972;3.538;2022-09-29T05:21:39;16.00;62.50
32706;DHT22;19094;50.972;3.538;2022-09-29T05:24:05;16.00;62.50
32706;DHT22;19094;50.972;3.538;2022-09-29T05:26:31;16.00;62.50
32706;DHT22;19094;50.972;3.538;2022-09-29T05:28:59;16.00;62.40
32706;DHT22;19094;50.972;3.538;2022-09-29T05:31:25;16.00;62.30
32706;DHT22;19094;50.972;3.538;2022-09-29T05:33:51;16.00;62.30
32706;DHT22;19094;50.972;3.538;2022-09-29T05:36:19;16.00;62.30
32706;DHT22;19094;50.972;3.538;2022-09-29T05:38:45;16.00;62.30
32706;DHT22;19094;50.972;3.538;2022-09-29T05:41:12;16.00;62.30
32706;DHT22;19094;50.972;3.538;2022-09-29T05:43:39;16.00;62.00
32706;DHT22;19094;50.972;3.538;2022-09-29T05:46:07;16.00;62.00
32706;DHT22;19094;50.972;3.538;2022-09-29T05:48:33;16.00;62.00
32706;DHT22;19094;50.972;3.538;2022-09-29T05:51:10;15.90;62.10
32706;DHT22;19094;50.972;3.538;2022-09-29T05:53:36;16.00;62.20
32706;DHT22;19094;50.972;3.538;2022-09-29T05:56:09;16.00;62.10
32706;DHT22;19094;50.972;3.538;2022-09-29T05:58:37;15.90;62.50
32706;DHT22;19094;50.972;3.538;2022-09-29T06:01:09;15.90;63.10
32706;DHT22;19094;50.972;3.538;2022-09-29T06:03:37;15.90;63.20
32706;DHT22;19094;50.972;3.538;2022-09-29T06:06:17;15.90;63.40
32706;DHT22;19094;50.972;3.538;2022-09-29T06:08:43;15.90;63.20
32706;DHT22;19094;50.972;3.538;2022-09-29T06:11:13;15.90;63.60
32706;DHT22;19094;50.972;3.538;2022-09-29T06:13:42;15.80;64.00
32706;DHT22;19094;50.972;3.538;2022-09-29T06:16:09;15.80;63.30
32706;DHT22;19094;50.972;3.538;2022-09-29T06:18:35;15.80;63.40
32706;DHT22;19094;50.972;3.538;2022-09-29T06:21:10;15.80;63.50
32706;DHT22;19094;50.972;3.538;2022-09-29T06:23:36;15.80;63.40
32706;DHT22;19094;50.972;3.538;2022-09-29T06:26:05;15.80;63.30
32706;DHT22;19094;50.972;3.538;2022-09-29T06:28:31;15.80;63.20
32706;DHT22;19094;50.972;3.538;2022-09-29T06:31:02;15.80;63.40
32706;DHT22;19094;50.972;3.538;2022-09-29T06:33:30;15.80;63.20
32706;DHT22;19094;50.972;3.538;2022-09-29T06:35:57;15.80;63.30
32706;DHT22;19094;50.972;3.538;2022-09-29T06:38:42;15.80;63.20
32706;DHT22;19094;50.972;3.538;2022-09-29T06:41:10;15.80;63.10
32706;DHT22;19094;50.972;3.538;2022-09-29T06:43:36;15.80;63.00
32706;DHT22;19094;50.972;3.538;2022-09-29T06:46:03;15.80;63.10
32706;DHT22;19094;50.972;3.538;2022-09-29T06:48:30;15.80;63.20
32706;DHT22;19094;50.972;3.538;2022-09-29T06:50:56;15.80;63.20
32706;DHT22;19094;50.972;3.538;2022-09-29T06:53:24;15.80;63.10
32706;DHT22;19094;50.972;3.538;2022-09-29T06:55:53;15.80;63.20
32706;DHT22;19094;50.972;3.538;2022-09-29T06:58:22;15.80;62.70
32706;DHT22;19094;50.972;3.538;2022-09-29T07:00:48;15.90;62.60
32706;DHT22;19094;50.972;3.538;2022-09-29T07:03:15;15.90;62.70
32706;DHT22;19094;50.972;3.538;2022-09-29T07:05:40;15.90;62.70
32706;DHT22;19094;50.972;3.538;2022-09-29T07:08:06;15.90;62.60
32706;DHT22;19094;50.972;3.538;2022-09-29T07:10:32;15.90;62.70
32706;DHT22;19094;50.972;3.538;2022-09-29T07:12:57;15.90;62.60
32706;DHT22;19094;50.972;3.538;2022-09-29T07:15:23;16.00;62.70
32706;DHT22;19094;50.972;3.538;2022-09-29T07:18:00;16.00;62.70
32706;DHT22;19094;50.972;3.538;2022-09-29T07:20:29;15.90;62.50
32706;DHT22;19094;50.972;3.538;2022-09-29T07:22:56;15.90;62.80
32706;DHT22;19094;50.972;3.538;2022-09-29T07:25:23;16.00;62.80
32706;DHT22;19094;50.972;3.538;2022-09-29T07:27:51;16.00;62.60
32706;DHT22;19094;50.972;3.538;2022-09-29T07:30:17;16.00;62.50
32706;DHT22;19094;50.972;3.538;2022-09-29T07:32:44;16.00;62.50
32706;DHT22;19094;50.972;3.538;2022-09-29T07:35:12;16.00;62.50
32706;DHT22;19094;50.972;3.538;2022-09-29T07:37:39;16.10;62.40
32706;DHT22;19094;50.972;3.538;2022-09-29T07:40:05;16.10;62.30
32706;DHT22;19094;50.972;3.538;2022-09-29T07:42:31;16.10;62.30
32706;DHT22;19094;50.972;3.538;2022-09-29T07:44:58;16.10;62.20
32706;DHT22;19094;50.972;3.538;2022-09-29T07:47:23;16.10;62.30
32706;DHT22;19094;50.972;3.538;2022-09-29T07:49:53;16.10;62.10
32706;DHT22;19094;50.972;3.538;2022-09-29T07:52:20;16.10;62.20
32706;DHT22;19094;50.972;3.538;2022-09-29T07:54:46;16.20;62.30
32706;DHT22;19094;50.972;3.538;2022-09-29T07:57:13;16.20;62.00
32706;DHT22;19094;50.972;3.538;2022-09-29T07:59:38;16.20;61.90
32706;DHT22;19094;50.972;3.538;2022-09-29T08:02:04;16.30;61.90
32706;DHT22;19094;50.972;3.538;2022-09-29T08:04:30;16.30;61.60
32706;DHT22;19094;50.972;3.538;2022-09-29T08:06:57;16.30;61.60
32706;DHT22;19094;50.972;3.538;2022-09-29T08:09:22;16.30;61.60
32706;DHT22;19094;50.972;3.538;2022-09-29T08:11:50;16.40;61.70
32706;DHT22;19094;50.972;3.538;2022-09-29T08:14:17;16.40;61.50
32706;DHT22;19094;50.972;3.538;2022-09-29T08:16:42;16.40;61.10
32706;DHT22;19094;50.972;3.538;2022-09-29T08:19:11;16.50;60.90
32706;DHT22;19094;50.972;3.538;2022-09-29T08:21:38;16.50;62.00
32706;DHT22;19094;50.972;3.538;2022-09-29T08:24:05;16.50;62.60
32706;DHT22;19094;50.972;3.538;2022-09-29T08:26:33;16.50;62.10
32706;DHT22;19094;50.972;3.538;2022-09-29T08:29:01;16.60;62.00
32706;DHT22;19094;50.972;3.538;2022-09-29T08:31:28;16.60;62.10
32706;DHT22;19094;50.972;3.538;2022-09-29T08:33:55;16.50;61.90
32706;DHT22;19094;50.972;3.538;2022-09-29T08:36:23;16.60;62.00
32706;DHT22;19094;50.972;3.538;2022-09-29T08:38:51;16.60;62.00
32706;DHT22;19094;50.972;3.538;2022-09-29T08:46:58;16.80;61.50
32706;DHT22;19094;50.972;3.538;2022-09-29T08:49:30;16.70;61.50
32706;DHT22;19094;50.972;3.538;2022-09-29T08:52:05;16.80;61.50
32706;DHT22;19094;50.972;3.538;2022-09-29T08:54:38;16.80;61.40
32706;DHT22;19094;50.972;3.538;2022-09-29T08:57:13;16.80;61.50
32706;DHT22;19094;50.972;3.538;2022-09-29T08:59:55;16.80;61.40
32706;DHT22;19094;50.972;3.538;2022-09-29T09:10:42;16.80;60.90
32706;DHT22;19094;50.972;3.538;2022-09-29T09:21:18;17.00;60.20
32706;DHT22;19094;50.972;3.538;2022-09-29T09:23:54;17.00;59.80
32706;DHT22;19094;50.972;3.538;2022-09-29T09:26:34;17.10;60.00
32706;DHT22;19094;50.972;3.538;2022-09-29T09:32:18;17.10;59.80
32706;DHT22;19094;50.972;3.538;2022-09-29T09:35:20;17.20;59.90
32706;DHT22;19094;50.972;3.538;2022-09-29T09:37:49;17.20;59.70
32706;DHT22;19094;50.972;3.538;2022-09-29T09:40:21;17.30;59.60
32706;DHT22;19094;50.972;3.538;2022-09-29T09:43:47;17.40;59.20
32706;DHT22;19094;50.972;3.538;2022-09-29T09:54:40;17.50;59.20
32706;DHT22;19094;50.972;3.538;2022-09-29T10:02:33;18.00;57.20
32706;DHT22;19094;50.972;3.538;2022-09-29T10:04:59;17.80;57.60
32706;DHT22;19094;50.972;3.538;2022-09-29T10:07:28;17.90;57.60
32706;DHT22;19094;50.972;3.538;2022-09-29T10:09:55;18.10;57.20
32706;DHT22;19094;50.972;3.538;2022-09-29T10:12:23;18.30;56.60
32706;DHT22;19094;50.972;3.538;2022-09-29T10:15:11;18.50;56.40
32706;DHT22;19094;50.972;3.538;2022-09-29T10:17:45;18.60;56.20
32706;DHT22;19094;50.972;3.538;2022-09-29T10:20:12;18.50;56.10
32706;DHT22;19094;50.972;3.538;2022-09-29T10:22:38;18.50;56.10
32706;DHT22;19094;50.972;3.538;2022-09-29T10:25:17;18.60;56.20
32706;DHT22;19094;50.972;3.538;2022-09-29T10:27:46;18.60;56.50
32706;DHT22;19094;50.972;3.538;2022-09-29T10:30:19;18.60;56.20
32706;DHT22;19094;50.972;3.538;2022-09-29T10:32:47;18.80;56.10
32706;DHT22;19094;50.972;3.538;2022-09-29T10:35:18;18.90;55.90
32706;DHT22;19094;50.972;3.538;2022-09-29T10:38:00;19.00;55.70
32706;DHT22;19094;50.972;3.538;2022-09-29T10:40:29;19.10;55.10
32706;DHT22;19094;50.972;3.538;2022-09-29T10:42:56;19.20;54.90
32706;DHT22;19094;50.972;3.538;2022-09-29T10:45:24;19.40;54.50
32706;DHT22;19094;50.972;3.538;2022-09-29T10:50:24;19.60;53.60
32706;DHT22;19094;50.972;3.538;2022-09-29T10:52:55;19.70;53.50
32706;DHT22;19094;50.972;3.538;2022-09-29T10:55:48;19.70;53.60
32706;DHT22;19094;50.972;3.538;2022-09-29T10:58:24;19.90;53.30
32706;DHT22;19094;50.972;3.538;2022-09-29T11:01:10;20.00;53.30
32706;DHT22;19094;50.972;3.538;2022-09-29T11:03:59;20.10;53.00
32706;DHT22;19094;50.972;3.538;2022-09-29T11:06:28;20.10;52.80
32706;DHT22;19094;50.972;3.538;2022-09-29T11:08:55;20.20;52.80
32706;DHT22;19094;50.972;3.538;2022-09-29T11:11:37;20.30;52.80
32706;DHT22;19094;50.972;3.538;2022-09-29T11:14:05;20.20;51.80
32706;DHT22;19094;50.972;3.538;2022-09-29T11:16:32;20.30;52.20
32706;DHT22;19094;50.972;3.538;2022-09-29T11:19:12;20.40;52.10
32706;DHT22;19094;50.972;3.538;2022-09-29T11:26:42;20.40;51.40
32706;DHT22;19094;50.972;3.538;2022-09-29T11:34:52;20.20;52.60
32706;DHT22;19094;50.972;3.538;2022-09-29T11:40:25;19.90;53.50
32706;DHT22;19094;50.972;3.538;2022-09-29T11:43:25;19.70;54.10
32706;DHT22;19094;50.972;3.538;2022-09-29T11:57:00;19.10;55.90
32706;DHT22;19094;50.972;3.538;2022-09-29T11:59:44;19.00;56.70
32706;DHT22;19094;50.972;3.538;2022-09-29T12:07:34;18.70;57.50
32706;DHT22;19094;50.972;3.538;2022-09-29T12:16:00;18.50;58.10
32706;DHT22;19094;50.972;3.538;2022-09-29T12:18:58;18.40;58.30
32706;DHT22;19094;50.972;3.538;2022-09-29T12:21:33;18.40;58.40
32706;DHT22;19094;50.972;3.538;2022-09-29T12:24:05;18.30;58.80
32706;DHT22;19094;50.972;3.538;2022-09-29T12:26:33;18.20;59.10
32706;DHT22;19094;50.972;3.538;2022-09-29T12:29:27;18.20;59.40
32706;DHT22;19094;50.972;3.538;2022-09-29T12:31:57;18.20;59.50
32706;DHT22;19094;50.972;3.538;2022-09-29T12:34:31;18.10;59.80
32706;DHT22;19094;50.972;3.538;2022-09-29T12:39:38;18.10;60.10
32706;DHT22;19094;50.972;3.538;2022-09-29T12:42:16;18.10;60.00
32706;DHT22;19094;50.972;3.538;2022-09-29T12:45:04;18.10;60.20
32706;DHT22;19094;50.972;3.538;2022-09-29T12:47:45;18.00;59.80
32706;DHT22;19094;50.972;3.538;2022-09-29T12:50:17;18.10;59.80
32706;DHT22;19094;50.972;3.538;2022-09-29T12:58:10;18.20;58.90
32706;DHT22;19094;50.972;3.538;2022-09-29T13:00:42;18.20;59.30
32706;DHT22;19094;50.972;3.538;2022-09-29T13:03:26;18.20;59.00
32706;DHT22;19094;50.972;3.538;2022-09-29T13:06:26;18.40;58.60
32706;DHT22;19094;50.972;3.538;2022-09-29T13:12:05;18.60;57.90
32706;DHT22;19094;50.972;3.538;2022-09-29T13:17:12;19.10;57.00
32706;DHT22;19094;50.972;3.538;2022-09-29T13:23:06;19.90;55.40
32706;DHT22;19094;50.972;3.538;2022-09-29T13:28:50;21.20;52.10
32706;DHT22;19094;50.972;3.538;2022-09-29T13:31:24;22.00;49.50
32706;DHT22;19094;50.972;3.538;2022-09-29T13:33:53;22.60;48.30
32706;DHT22;19094;50.972;3.538;2022-09-29T13:36:33;22.90;46.50
32706;DHT22;19094;50.972;3.538;2022-09-29T13:39:04;23.30;45.30
32706;DHT22;19094;50.972;3.538;2022-09-29T13:44:04;23.80;43.90
32706;DHT22;19094;50.972;3.538;2022-09-29T13:46:38;24.30;42.60
32706;DHT22;19094;50.972;3.538;2022-09-29T13:49:41;24.80;42.10
32706;DHT22;19094;50.972;3.538;2022-09-29T13:52:29;25.10;40.90
32706;DHT22;19094;50.972;3.538;2022-09-29T13:55:10;25.70;40.40
32706;DHT22;19094;50.972;3.538;2022-09-29T13:57:50;26.00;38.50
32706;DHT22;19094;50.972;3.538;2022-09-29T14:00:18;26.40;38.00
32706;DHT22;19094;50.972;3.538;2022-09-29T14:03:05;26.60;38.40
32706;DHT22;19094;50.972;3.538;2022-09-29T14:05:35;26.80;38.60
32706;DHT22;19094;50.972;3.538;2022-09-29T14:10:45;27.30;36.00
32706;DHT22;19094;50.972;3.538;2022-09-29T14:16:01;27.00;37.00
32706;DHT22;19094;50.972;3.538;2022-09-29T14:29:15;25.00;40.40
32706;DHT22;19094;50.972;3.538;2022-09-29T14:31:45;24.60;42.00
32706;DHT22;19094;50.972;3.538;2022-09-29T14:34:16;24.30;43.00
32706;DHT22;19094;50.972;3.538;2022-09-29T14:36:43;23.90;44.60
32706;DHT22;19094;50.972;3.538;2022-09-29T14:39:14;23.50;45.10
32706;DHT22;19094;50.972;3.538;2022-09-29T14:41:42;23.20;46.30
32706;DHT22;19094;50.972;3.538;2022-09-29T14:44:30;22.90;46.20
32706;DHT22;19094;50.972;3.538;2022-09-29T15:01:33;22.10;46.60
32706;DHT22;19094;50.972;3.538;2022-09-29T15:04:15;22.10;48.10
32706;DHT22;19094;50.972;3.538;2022-09-29T15:06:52;22.10;48.20
32706;DHT22;19094;50.972;3.538;2022-09-29T15:09:21;22.20;47.10
32706;DHT22;19094;50.972;3.538;2022-09-29T15:14:22;22.20;47.30
32706;DHT22;19094;50.972;3.538;2022-09-29T15:25:30;21.70;48.90
32706;DHT22;19094;50.972;3.538;2022-09-29T15:30:49;21.40;49.80
32706;DHT22;19094;50.972;3.538;2022-09-29T15:33:24;21.20;50.90
32706;DHT22;19094;50.972;3.538;2022-09-29T15:36:07;21.10;50.10
32706;DHT22;19094;50.972;3.538;2022-09-29T15:38:38;20.90;50.20
32706;DHT22;19094;50.972;3.538;2022-09-29T15:43:57;20.70;51.50
32706;DHT22;19094;50.972;3.538;2022-09-29T15:46:49;20.60;51.80
32706;DHT22;19094;50.972;3.538;2022-09-29T15:49:26;20.50;51.60
32706;DHT22;19094;50.972;3.538;2022-09-29T15:54:28;20.30;52.70
32706;DHT22;19094;50.972;3.538;2022-09-29T15:56:55;20.10;53.80
32706;DHT22;19094;50.972;3.538;2022-09-29T15:59:44;20.00;53.60
32706;DHT22;19094;50.972;3.538;2022-09-29T16:02:40;20.00;52.00
32706;DHT22;19094;50.972;3.538;2022-09-29T16:05:10;19.90;53.30
32706;DHT22;19094;50.972;3.538;2022-09-29T16:07:53;19.90;54.20
32706;DHT22;19094;50.972;3.538;2022-09-29T16:10:27;19.80;54.30
32706;DHT22;19094;50.972;3.538;2022-09-29T16:13:05;19.80;54.30
32706;DHT22;19094;50.972;3.538;2022-09-29T16:15:41;19.80;53.80
32706;DHT22;19094;50.972;3.538;2022-09-29T16:18:18;19.80;54.00
32706;DHT22;19094;50.972;3.538;2022-09-29T16:20:46;19.70;54.00
32706;DHT22;19094;50.972;3.538;2022-09-29T16:23:21;19.70;54.20
32706;DHT22;19094;50.972;3.538;2022-09-29T16:28:59;19.60;54.00
32706;DHT22;19094;50.972;3.538;2022-09-29T16:31:27;19.60;54.10
32706;DHT22;19094;50.972;3.538;2022-09-29T16:33:56;19.60;54.70
32706;DHT22;19094;50.972;3.538;2022-09-29T16:36:29;19.50;54.90
32706;DHT22;19094;50.972;3.538;2022-09-29T16:39:05;19.50;54.80
32706;DHT22;19094;50.972;3.538;2022-09-29T16:41:37;19.50;55.20
32706;DHT22;19094;50.972;3.538;2022-09-29T16:47:11;19.40;55.30
32706;DHT22;19094;50.972;3.538;2022-09-29T16:49:57;19.40;55.20
32706;DHT22;19094;50.972;3.538;2022-09-29T16:52:43;19.40;55.40
32706;DHT22;19094;50.972;3.538;2022-09-29T16:58:09;19.30;55.40
32706;DHT22;19094;50.972;3.538;2022-09-29T17:00:38;19.30;55.60
32706;DHT22;19094;50.972;3.538;2022-09-29T17:03:04;19.20;55.50
32706;DHT22;19094;50.972;3.538;2022-09-29T17:05:39;19.30;55.80
32706;DHT22;19094;50.972;3.538;2022-09-29T17:08:22;19.20;56.60
32706;DHT22;19094;50.972;3.538;2022-09-29T17:10:50;19.20;56.40
32706;DHT22;19094;50.972;3.538;2022-09-29T17:13:19;19.20;56.60
32706;DHT22;19094;50.972;3.538;2022-09-29T17:15:51;19.20;56.40
32706;DHT22;19094;50.972;3.538;2022-09-29T17:18:19;19.20;56.20
32706;DHT22;19094;50.972;3.538;2022-09-29T17:20:45;19.20;56.00
32706;DHT22;19094;50.972;3.538;2022-09-29T17:23:11;19.20;56.00
32706;DHT22;19094;50.972;3.538;2022-09-29T17:25:40;19.10;56.00
32706;DHT22;19094;50.972;3.538;2022-09-29T17:28:19;18.80;57.30
32706;DHT22;19094;50.972;3.538;2022-09-29T17:30:50;18.70;57.80
32706;DHT22;19094;50.972;3.538;2022-09-29T17:33:17;18.70;58.40
32706;DHT22;19094;50.972;3.538;2022-09-29T17:35:46;18.80;57.50
32706;DHT22;19094;50.972;3.538;2022-09-29T17:38:13;18.90;56.90
32706;DHT22;19094;50.972;3.538;2022-09-29T17:41:03;19.00;56.70
32706;DHT22;19094;50.972;3.538;2022-09-29T17:43:32;19.00;56.70
32706;DHT22;19094;50.972;3.538;2022-09-29T17:45:59;19.00;56.50
32706;DHT22;19094;50.972;3.538;2022-09-29T17:48:26;19.00;56.50
32706;DHT22;19094;50.972;3.538;2022-09-29T17:50:54;19.00;56.60
32706;DHT22;19094;50.972;3.538;2022-09-29T17:53:23;19.00;56.50
32706;DHT22;19094;50.972;3.538;2022-09-29T17:55:52;19.00;56.50
32706;DHT22;19094;50.972;3.538;2022-09-29T17:58:19;18.90;56.60
32706;DHT22;19094;50.972;3.538;2022-09-29T18:00:53;18.90;56.60
32706;DHT22;19094;50.972;3.538;2022-09-29T18:03:19;18.90;56.70
32706;DHT22;19094;50.972;3.538;2022-09-29T18:05:50;18.90;56.40
32706;DHT22;19094;50.972;3.538;2022-09-29T18:08:21;18.80;56.70
32706;DHT22;19094;50.972;3.538;2022-09-29T18:10:59;18.80;56.80
32706;DHT22;19094;50.972;3.538;2022-09-29T18:13:26;18.80;56.80
32706;DHT22;19094;50.972;3.538;2022-09-29T18:15:53;18.80;56.80
32706;DHT22;19094;50.972;3.538;2022-09-29T18:18:23;18.80;57.00
32706;DHT22;19094;50.972;3.538;2022-09-29T18:20:49;18.70;57.00
32706;DHT22;19094;50.972;3.538;2022-09-29T18:23:16;18.70;57.10
32706;DHT22;19094;50.972;3.538;2022-09-29T18:25:44;18.70;57.10
32706;DHT22;19094;50.972;3.538;2022-09-29T18:28:11;18.70;57.10
32706;DHT22;19094;50.972;3.538;2022-09-29T18:30:39;18.70;57.10
32706;DHT22;19094;50.972;3.538;2022-09-29T18:33:13;18.70;57.10
32706;DHT22;19094;50.972;3.538;2022-09-29T18:35:39;18.70;57.20
32706;DHT22;19094;50.972;3.538;2022-09-29T18:38:08;18.60;57.10
32706;DHT22;19094;50.972;3.538;2022-09-29T18:40:35;18.60;57.40
32706;DHT22;19094;50.972;3.538;2022-09-29T18:43:01;18.60;57.50
32706;DHT22;19094;50.972;3.538;2022-09-29T18:45:29;18.50;57.50
32706;DHT22;19094;50.972;3.538;2022-09-29T18:48:00;18.50;57.50
32706;DHT22;19094;50.972;3.538;2022-09-29T18:50:39;18.50;58.10
32706;DHT22;19094;50.972;3.538;2022-09-29T18:53:07;18.50;57.60
32706;DHT22;19094;50.972;3.538;2022-09-29T18:55:33;18.40;57.70
32706;DHT22;19094;50.972;3.538;2022-09-29T18:58:01;18.40;57.70
32706;DHT22;19094;50.972;3.538;2022-09-29T19:00:30;18.40;57.70
32706;DHT22;19094;50.972;3.538;2022-09-29T19:02:58;18.40;57.80
32706;DHT22;19094;50.972;3.538;2022-09-29T19:05:27;18.40;57.70
32706;DHT22;19094;50.972;3.538;2022-09-29T19:08:04;18.40;57.80